< < Back
Terminal Aerodrome Forecast


Current Version              Previous Versions:   1  2  3  4  5  6  7  8  9  

Terminal Aerodrome Forecast

850
FTUS44 KBMX 280723 AAA
TAFANB
TAF AMD
KANB 280723Z 2807/2906 00000KT 4SM BR OVC002
     FM281600 02010KT P6SM BKN150
     FM282100 36010KT P6SM VCTS BKN050CB
     FM290100 01005KT P6SM BKN250=

Latest METAR

404
SAUS70 KWBC 281100 RRK
MTRANB
METAR KANB 281053Z AUTO 00000KT 10SM BKN008 BKN120 22/21 A3002 RMK AO2
SLP155 T02220211


USA.gov is the U.S. government's official web portal to all federal, state and local government web resources and services.